createdAt,value
2023-04-22T00:01:13.522Z,97887.38
2023-04-22T00:04:17.760Z,97888.16
2023-04-22T00:07:20.619Z,97890.03
2023-04-22T00:10:23.532Z,97887.81
2023-04-22T00:13:26.108Z,97890.63
2023-04-22T00:16:28.733Z,97884.00
2023-04-22T00:19:32.609Z,97877.72
2023-04-22T00:22:35.205Z,97874.91
2023-04-22T00:25:37.968Z,97881.16
2023-04-22T00:28:41.355Z,97878.31
2023-04-22T00:31:43.950Z,97881.78
2023-04-22T00:34:47.818Z,97886.47
2023-04-22T00:37:50.320Z,97878.31
2023-04-22T00:40:52.864Z,97884.69
2023-04-22T00:43:55.849Z,97876.84
2023-04-22T00:46:58.436Z,97881.44
2023-04-22T00:50:02.607Z,97870.66
2023-04-22T00:53:05.421Z,97880.38
2023-04-22T00:56:08.694Z,97890.38
2023-04-22T00:59:11.428Z,97877.56
2023-04-22T01:02:14.514Z,97881.88
2023-04-22T01:05:18.567Z,97887.44
2023-04-22T01:08:21.150Z,97884.72
2023-04-22T01:11:23.851Z,97883.91
2023-04-22T01:14:26.567Z,97881.78
2023-04-22T01:17:29.222Z,97876.59
2023-04-22T01:20:34.043Z,97879.91
2023-04-22T01:23:38.062Z,97887.34
2023-04-22T01:26:40.841Z,97892.75
2023-04-22T01:29:43.643Z,97888.66
2023-04-22T01:32:46.592Z,97887.41
2023-04-22T01:35:49.361Z,97886.19
2023-04-22T01:38:53.243Z,97887.34
2023-04-22T01:41:56.807Z,97879.81
2023-04-22T01:44:59.742Z,97882.91
2023-04-22T01:48:02.456Z,97881.31
2023-04-22T01:51:05.334Z,97886.81
2023-04-22T01:54:09.672Z,97886.88
2023-04-22T01:57:14.352Z,97884.41
2023-04-22T02:00:17.507Z,97877.69
2023-04-22T02:03:20.197Z,97885.72
2023-04-22T02:06:23.007Z,97892.41
2023-04-22T02:09:26.835Z,97896.31
2023-04-22T02:12:29.492Z,97897.03
2023-04-22T02:15:32.087Z,97898.88
2023-04-22T02:18:35.084Z,97899.91
2023-04-22T02:21:37.690Z,97909.72
2023-04-22T02:24:43.129Z,97900.28
2023-04-22T02:27:45.815Z,97910.22
2023-04-22T02:30:48.499Z,97906.25
2023-04-22T02:33:51.138Z,97910.84
2023-04-22T02:36:53.809Z,97910.47
2023-04-22T02:39:57.836Z,97914.56
2023-04-22T02:43:00.426Z,97916.06
2023-04-22T02:46:03.191Z,97905.44
2023-04-22T02:49:05.752Z,97909.25
2023-04-22T02:52:08.422Z,97927.25
2023-04-22T02:55:12.623Z,97920.75
2023-04-22T02:58:15.147Z,97915.44
2023-04-22T03:01:17.820Z,97922.56
2023-04-22T03:04:21.964Z,97920.25
2023-04-22T03:07:24.800Z,97913.47
2023-04-22T03:10:28.900Z,97908.72
2023-04-22T03:13:31.661Z,97915.47
2023-04-22T03:16:34.339Z,97899.41
2023-04-22T03:19:37.043Z,97901.56
2023-04-22T03:22:39.717Z,97911.47
2023-04-22T03:25:43.817Z,97909.63
2023-04-22T03:28:46.446Z,97911.91
2023-04-22T03:31:49.075Z,97917.06
2023-04-22T03:34:51.941Z,97908.69
2023-04-22T03:37:54.944Z,97914.75
2023-04-22T03:40:59.151Z,97913.38
2023-04-22T03:44:02.113Z,97916.22
2023-04-22T03:47:05.130Z,97914.44
2023-04-22T03:50:08.554Z,97921.81
2023-04-22T03:53:11.193Z,97924.91
2023-04-22T03:56:15.364Z,97923.78
2023-04-22T03:59:18.731Z,97926.72
2023-04-22T04:02:21.540Z,97918.97
2023-04-22T04:05:24.383Z,97922.28
2023-04-22T04:08:27.810Z,97923.63
2023-04-22T04:11:31.861Z,97919.31
2023-04-22T04:14:34.367Z,97924.44
2023-04-22T04:17:36.956Z,97914.56
2023-04-22T04:20:39.473Z,97919.44
2023-04-22T04:23:41.987Z,97920.81
2023-04-22T04:26:45.979Z,97908.53
2023-04-22T04:29:49.505Z,97914.56
2023-04-22T04:32:52.278Z,97916.50
2023-04-22T04:35:55.463Z,97915.78
2023-04-22T04:38:58.223Z,97917.50
2023-04-22T04:42:02.610Z,97913.06
2023-04-22T04:45:06.622Z,97917.63
2023-04-22T04:48:09.417Z,97915.00
2023-04-22T04:51:12.662Z,97911.03
2023-04-22T04:54:15.499Z,97914.88
2023-04-22T04:57:19.551Z,97898.72
2023-04-22T05:00:22.227Z,97903.59
2023-04-22T05:03:25.051Z,97907.59
2023-04-22T05:06:28.097Z,97907.13
2023-04-22T05:09:32.996Z,97905.72
2023-04-22T05:12:37.121Z,97896.56
2023-04-22T05:15:39.796Z,97900.56
2023-04-22T05:18:42.518Z,97910.34
2023-04-22T05:21:45.252Z,97905.97
2023-04-22T05:24:47.811Z,97904.47
2023-04-22T05:27:51.828Z,97912.66
2023-04-22T05:30:54.472Z,97908.34
2023-04-22T05:33:57.077Z,97913.09
2023-04-22T05:36:59.611Z,97924.16
2023-04-22T05:40:02.279Z,97925.88
2023-04-22T05:43:06.482Z,97916.16
2023-04-22T05:46:09.277Z,97924.66
2023-04-22T05:49:11.939Z,97924.78
2023-04-22T05:52:14.711Z,97930.47
2023-04-22T05:55:17.452Z,97933.16
2023-04-22T05:58:21.385Z,97932.25
2023-04-22T06:01:24.907Z,97930.31
2023-04-22T06:04:27.703Z,97938.06
2023-04-22T06:07:30.544Z,97935.56
2023-04-22T06:10:33.239Z,97941.88
2023-04-22T06:13:37.161Z,97929.75
2023-04-22T06:16:39.903Z,97935.22
2023-04-22T06:19:42.547Z,97941.50
2023-04-22T06:22:45.323Z,97937.69
2023-04-22T06:25:48.465Z,97932.72
2023-04-22T06:28:52.471Z,97936.84
2023-04-22T06:31:55.862Z,97938.09
2023-04-22T06:34:58.550Z,97936.81
2023-04-22T06:38:01.090Z,97937.13
2023-04-22T06:41:03.928Z,97938.28
2023-04-22T06:44:07.916Z,97940.72
2023-04-22T06:47:10.819Z,97940.41
2023-04-22T06:50:13.439Z,97939.00
2023-04-22T06:53:16.411Z,97945.50
2023-04-22T06:56:19.004Z,97938.88
2023-04-22T06:59:22.926Z,97942.03
2023-04-22T07:02:25.783Z,97947.22
2023-04-22T07:05:31.997Z,97943.13
2023-04-22T07:08:34.690Z,97951.72
2023-04-22T07:11:37.418Z,97941.69
2023-04-22T07:14:45.470Z,97940.63
2023-04-22T07:17:48.150Z,97936.47
2023-04-22T07:20:51.108Z,97932.97
2023-04-22T07:23:53.728Z,97939.69
2023-04-22T07:26:56.389Z,97927.13
2023-04-22T07:30:00.433Z,97918.84
2023-04-22T07:33:03.331Z,97919.25
2023-04-22T07:36:06.761Z,97921.69
2023-04-22T07:39:09.756Z,97914.97
2023-04-22T07:42:12.743Z,97915.31
2023-04-22T07:45:16.944Z,97913.56
2023-04-22T07:48:19.488Z,97915.22
2023-04-22T07:51:22.264Z,97919.41
2023-04-22T07:54:24.884Z,97925.09
2023-04-22T07:57:27.572Z,97922.41
2023-04-22T08:00:32.056Z,97915.13
2023-04-22T08:03:34.764Z,97930.50
2023-04-22T08:06:37.480Z,97935.94
2023-04-22T08:09:40.428Z,97946.31
2023-04-22T08:12:43.171Z,97945.41
2023-04-22T08:15:47.183Z,97944.13
2023-04-22T08:18:50.142Z,97940.16
2023-04-22T08:21:52.734Z,97945.78
2023-04-22T08:24:55.792Z,97939.22
2023-04-22T08:27:58.413Z,97939.00
2023-04-22T08:31:02.557Z,97936.63
2023-04-22T08:34:05.221Z,97933.53
2023-04-22T08:37:07.923Z,97935.81
2023-04-22T08:40:11.197Z,97932.56
2023-04-22T08:43:13.604Z,97929.81
2023-04-22T08:46:20.040Z,97926.66
2023-04-22T08:49:24.931Z,97927.44
2023-04-22T08:52:27.545Z,97928.13
2023-04-22T08:55:30.882Z,97924.44
2023-04-22T08:58:34.224Z,97924.16
2023-04-22T09:01:39.461Z,97918.97
2023-04-22T09:04:43.243Z,97916.16
2023-04-22T09:07:46.092Z,97913.00
2023-04-22T09:10:48.937Z,97912.09
2023-04-22T09:13:51.846Z,97905.66
2023-04-22T09:16:59.353Z,97894.72
2023-04-22T09:20:03.130Z,97901.28
2023-04-22T09:23:06.090Z,97897.22
2023-04-22T09:26:09.158Z,97897.00
2023-04-22T09:29:14.697Z,97895.63
2023-04-22T09:32:19.277Z,97889.88
2023-04-22T09:35:27.434Z,97893.63
2023-04-22T09:38:32.217Z,97898.06
2023-04-22T09:41:36.666Z,97889.81
2023-04-22T09:44:40.641Z,97888.56
2023-04-22T09:47:47.368Z,97892.19
2023-04-22T09:50:52.745Z,97894.03
2023-04-22T09:53:59.405Z,97886.41
2023-04-22T09:57:02.448Z,97881.44
2023-04-22T10:00:07.810Z,97880.59
2023-04-22T10:03:12.126Z,97875.78
2023-04-22T10:06:14.868Z,97880.41
2023-04-22T10:09:19.402Z,97866.28
2023-04-22T10:12:32.967Z,97867.09
2023-04-22T10:15:40.677Z,97866.22
2023-04-22T10:18:44.704Z,97866.56
2023-04-22T10:21:48.591Z,97860.31
2023-04-22T10:24:55.344Z,97861.16
2023-04-22T10:28:04.913Z,97857.69
2023-04-22T10:31:07.981Z,97854.47
2023-04-22T10:34:13.971Z,97856.59
2023-04-22T10:37:19.955Z,97851.97
2023-04-22T10:40:23.757Z,97841.13
2023-04-22T10:43:41.972Z,97841.06
2023-04-22T10:47:00.894Z,97838.34
2023-04-22T10:50:23.793Z,97831.81
2023-04-22T10:53:40.675Z,97828.72
2023-04-22T10:57:01.856Z,97822.34
2023-04-22T11:00:22.664Z,97818.53
2023-04-22T11:03:30.128Z,97817.13
2023-04-22T11:06:34.622Z,97816.28
2023-04-22T11:09:41.067Z,97819.22
2023-04-22T11:12:44.841Z,97809.88
2023-04-22T11:15:49.037Z,97812.47
2023-04-22T11:18:51.809Z,97821.41
2023-04-22T11:21:55.976Z,97822.28
2023-04-22T11:25:00.002Z,97820.81
2023-04-22T11:28:03.664Z,97821.16
2023-04-22T11:31:07.447Z,97804.31
2023-04-22T11:34:10.479Z,97799.16
2023-04-22T11:37:14.437Z,97816.03
2023-04-22T11:43:31.064Z,97801.28
2023-04-22T11:46:38.484Z,97797.91
2023-04-22T11:49:41.306Z,97796.00
2023-04-22T11:52:46.372Z,97804.06
2023-04-22T11:55:51.965Z,97802.00
2023-04-22T11:58:54.699Z,97808.28
2023-04-22T12:01:57.273Z,97802.88
2023-04-22T12:05:00.733Z,97797.94
2023-04-22T12:08:07.171Z,97800.38
2023-04-22T12:11:10.822Z,97804.31
2023-04-22T12:14:13.438Z,97798.09
2023-04-22T12:17:16.536Z,97792.66
2023-04-22T12:20:19.607Z,97800.59
2023-04-22T12:23:23.590Z,97804.09
2023-04-22T12:26:27.829Z,97791.44
2023-04-22T12:29:33.054Z,97801.59
2023-04-22T12:32:35.764Z,97798.50
2023-04-22T12:35:38.432Z,97793.44
2023-04-22T12:38:42.498Z,97793.03
2023-04-22T12:41:45.154Z,97796.28
2023-04-22T12:44:47.674Z,97801.50
2023-04-22T12:47:50.593Z,97801.31
2023-04-22T12:50:53.179Z,97818.13
2023-04-22T12:53:57.051Z,97801.47
2023-04-22T12:56:59.697Z,97798.97
2023-04-22T13:00:02.510Z,97801.94
2023-04-22T13:03:05.253Z,97796.53
2023-04-22T13:06:08.186Z,97795.53
2023-04-22T13:09:12.016Z,97788.97
2023-04-22T13:12:14.600Z,97793.31
2023-04-22T13:15:19.217Z,97798.16
2023-04-22T13:18:22.817Z,97777.47
2023-04-22T13:21:25.457Z,97786.47
2023-04-22T13:24:29.728Z,97782.88
2023-04-22T13:27:32.395Z,97796.38
2023-04-22T13:30:35.030Z,97785.41
2023-04-22T13:33:37.931Z,97785.88
2023-04-22T13:36:40.540Z,97785.25
2023-04-22T13:39:44.612Z,97784.38
2023-04-22T13:42:47.262Z,97778.00
2023-04-22T13:45:50.149Z,97787.16
2023-04-22T13:48:52.708Z,97781.06
2023-04-22T13:51:55.546Z,97776.78
2023-04-22T13:54:59.449Z,97780.00
2023-04-22T13:58:02.274Z,97784.50
2023-04-22T14:01:05.273Z,97783.81
2023-04-22T14:04:07.950Z,97775.06
2023-04-22T14:07:10.942Z,97776.19
2023-04-22T14:10:14.942Z,97772.84
2023-04-22T14:13:17.473Z,97769.50
2023-04-22T14:16:20.315Z,97768.69
2023-04-22T14:19:23.349Z,97779.22
2023-04-22T14:22:25.993Z,97775.38
2023-04-22T14:25:29.928Z,97773.16
2023-04-22T14:28:32.669Z,97770.38
2023-04-22T14:31:35.515Z,97777.31
2023-04-22T14:34:39.123Z,97773.94
2023-04-22T14:37:43.560Z,97780.22
2023-04-22T14:40:48.112Z,97770.81
2023-04-22T14:43:50.917Z,97769.50
2023-04-22T14:46:53.593Z,97757.41
2023-04-22T14:49:56.274Z,97768.94
2023-04-22T14:52:58.877Z,97766.34
2023-04-22T14:56:02.867Z,97775.78
2023-04-22T14:59:05.562Z,97781.66
2023-04-22T15:02:08.416Z,97774.66
2023-04-22T15:05:10.826Z,97775.84
2023-04-22T15:08:13.305Z,97773.00
2023-04-22T15:11:17.137Z,97769.44
2023-04-22T15:14:19.702Z,97780.66
2023-04-22T15:17:23.343Z,97765.03
2023-04-22T15:20:26.164Z,97769.31
2023-04-22T15:23:28.736Z,97769.03
2023-04-22T15:26:33.427Z,97768.56
2023-04-22T15:29:36.229Z,97771.50
2023-04-22T15:32:39.139Z,97773.53
2023-04-22T15:35:43.180Z,97769.66
2023-04-22T15:38:45.847Z,97771.97
2023-04-22T15:41:49.891Z,97767.88
2023-04-22T15:44:52.541Z,97774.44
2023-04-22T15:47:55.409Z,97773.72
2023-04-22T15:50:57.999Z,97768.72
2023-04-22T15:54:01.821Z,97772.56
2023-04-22T15:57:06.078Z,97767.94
2023-04-22T16:00:13.071Z,97768.97
2023-04-22T16:03:16.337Z,97766.13
2023-04-22T16:06:19.942Z,97762.69
2023-04-22T16:09:22.575Z,97772.38
2023-04-22T16:12:26.664Z,97769.13
2023-04-22T16:15:29.218Z,97769.47
2023-04-22T16:18:31.975Z,97785.44
2023-04-22T16:21:35.795Z,97782.97
2023-04-22T16:24:38.358Z,97774.44
2023-04-22T16:27:42.660Z,97786.13
2023-04-22T16:30:45.299Z,97786.63
2023-04-22T16:33:47.883Z,97785.84
2023-04-22T16:36:51.030Z,97790.00
2023-04-22T16:39:53.809Z,97786.41
2023-04-22T16:43:02.814Z,97774.16
2023-04-22T16:46:05.644Z,97772.16
2023-04-22T16:49:10.362Z,97775.66
2023-04-22T16:52:13.130Z,97770.16
2023-04-22T16:55:15.864Z,97780.72
2023-04-22T16:58:19.921Z,97760.41
2023-04-22T17:01:23.632Z,97772.88
2023-04-22T17:04:26.410Z,97769.59
2023-04-22T17:07:29.295Z,97772.53
2023-04-22T17:10:32.616Z,97771.53
2023-04-22T17:13:36.481Z,97781.56
2023-04-22T17:16:39.058Z,97773.31
2023-04-22T17:19:43.001Z,97781.00
2023-04-22T17:22:46.028Z,97772.38
2023-04-22T17:25:48.616Z,97780.09
2023-04-22T17:28:52.544Z,97783.28
2023-04-22T17:31:55.455Z,97786.97
2023-04-22T17:34:58.352Z,97789.47
2023-04-22T17:38:00.872Z,97796.19
2023-04-22T17:41:03.527Z,97792.75
2023-04-22T17:44:08.888Z,97792.38
2023-04-22T17:47:11.974Z,97794.03
2023-04-22T17:50:14.588Z,97794.47
2023-04-22T17:53:17.507Z,97799.72
2023-04-22T17:56:20.323Z,97800.84
2023-04-22T17:59:24.321Z,97801.28
2023-04-22T18:02:27.200Z,97805.28
2023-04-22T18:05:29.887Z,97815.63
2023-04-22T18:08:32.561Z,97827.63
2023-04-22T18:11:35.267Z,97829.00
2023-04-22T18:14:39.287Z,97837.41
2023-04-22T18:17:41.870Z,97843.81
2023-04-22T18:20:45.616Z,97851.44
2023-04-22T18:23:48.321Z,97861.00
2023-04-22T18:26:50.946Z,97872.06
2023-04-22T18:29:55.228Z,97879.63
2023-04-22T18:32:57.986Z,97884.03
2023-04-22T18:36:00.852Z,97889.66
2023-04-22T18:39:05.519Z,97907.44
2023-04-22T18:42:08.044Z,97908.22
2023-04-22T18:45:12.575Z,97916.47
2023-04-22T18:48:15.128Z,97912.53
2023-04-22T18:51:17.670Z,97921.56
2023-04-22T18:54:20.626Z,97922.34
2023-04-22T18:57:23.219Z,97933.09
2023-04-22T19:00:27.599Z,97935.44
2023-04-22T19:03:30.245Z,97930.25
2023-04-22T19:06:32.966Z,97946.31
2023-04-22T19:09:35.776Z,97934.63
2023-04-22T19:12:38.307Z,97944.16
2023-04-22T19:15:42.357Z,97943.03
2023-04-22T19:18:45.001Z,97945.00
2023-04-22T19:21:47.600Z,97950.84
2023-04-22T19:24:50.166Z,97948.00
2023-04-22T19:27:52.737Z,97954.97
2023-04-22T19:30:56.814Z,97957.91
2023-04-22T19:33:59.538Z,97947.84
2023-04-22T19:37:02.963Z,97947.94
2023-04-22T19:40:05.687Z,97954.31
2023-04-22T19:43:08.254Z,97948.41
2023-04-22T19:46:12.153Z,97949.97
2023-04-22T19:49:15.646Z,97944.81
2023-04-22T19:52:18.271Z,97950.28
2023-04-22T19:55:21.090Z,97946.31
2023-04-22T19:58:23.891Z,97939.13
2023-04-22T20:01:29.625Z,97935.22
2023-04-22T20:04:32.702Z,97944.72
2023-04-22T20:07:36.526Z,97947.09
2023-04-22T20:10:39.513Z,97938.81
2023-04-22T20:13:42.745Z,97931.31
2023-04-22T20:19:50.779Z,97921.75
2023-04-22T20:22:54.791Z,97919.75
2023-04-22T20:25:57.726Z,97910.28
2023-04-22T20:29:01.734Z,97907.47
2023-04-22T20:32:06.431Z,97911.47
2023-04-22T20:35:16.078Z,97905.19
2023-04-22T20:38:20.377Z,97900.44
2023-04-22T20:41:24.657Z,97909.03
2023-04-22T20:44:27.307Z,97909.81
2023-04-22T20:47:31.837Z,97912.94
2023-04-22T20:50:34.521Z,97911.75
2023-04-22T20:53:38.142Z,97905.03
2023-04-22T20:56:41.203Z,97909.75
2023-04-22T20:59:44.018Z,97903.81
2023-04-22T21:02:49.481Z,97913.63
2023-04-22T21:05:52.438Z,97919.13
2023-04-22T21:08:56.095Z,97918.34
2023-04-22T21:11:58.989Z,97914.41
2023-04-22T21:15:02.318Z,97910.41
2023-04-22T21:18:06.530Z,97908.00
2023-04-22T21:21:10.952Z,97904.78
2023-04-22T21:24:15.018Z,97907.50
2023-04-22T21:27:17.966Z,97913.38
2023-04-22T21:30:21.835Z,97926.75
2023-04-22T21:33:26.131Z,97928.69
2023-04-22T21:36:28.830Z,97924.31
2023-04-22T21:39:31.437Z,97931.75
2023-04-22T21:42:34.164Z,97932.50
2023-04-22T21:45:36.720Z,97933.56
2023-04-22T21:48:40.699Z,97922.94
2023-04-22T21:51:43.300Z,97922.50
2023-04-22T21:54:45.932Z,97929.50
2023-04-22T21:57:48.673Z,97931.84
2023-04-22T22:00:51.202Z,97927.84
2023-04-22T22:03:55.303Z,97928.59
2023-04-22T22:06:57.989Z,97928.53
2023-04-22T22:10:00.684Z,97924.53
2023-04-22T22:13:03.292Z,97927.22
2023-04-22T22:16:07.075Z,97924.44
2023-04-22T22:19:11.345Z,97926.03
2023-04-22T22:22:13.997Z,97926.94
2023-04-22T22:25:17.180Z,97925.78
2023-04-22T22:28:19.699Z,97935.66
2023-04-22T22:31:22.287Z,97933.25
2023-04-22T22:34:26.412Z,97936.13
2023-04-22T22:37:28.947Z,97936.19
2023-04-22T22:40:31.868Z,97935.03
2023-04-22T22:43:34.500Z,97935.88
2023-04-22T22:46:37.549Z,97937.44
2023-04-22T22:49:42.781Z,97931.81
2023-04-22T22:52:45.368Z,97923.03
2023-04-22T22:55:48.060Z,97919.75
2023-04-22T22:58:50.591Z,97922.81
2023-04-22T23:01:53.179Z,97916.41
2023-04-22T23:04:57.164Z,97921.47
2023-04-22T23:07:59.671Z,97922.59
2023-04-22T23:11:02.319Z,97915.47
2023-04-22T23:14:04.880Z,97913.91
2023-04-22T23:17:07.481Z,97912.72
2023-04-22T23:20:12.349Z,97913.94
2023-04-22T23:23:16.785Z,97902.91
2023-04-22T23:26:20.176Z,97906.94
2023-04-22T23:29:23.057Z,97906.91
2023-04-22T23:32:26.543Z,97900.63
2023-04-22T23:35:30.508Z,97891.97
2023-04-22T23:38:32.947Z,97904.56
2023-04-22T23:41:36.256Z,97891.97
2023-04-22T23:44:39.108Z,97898.34
2023-04-22T23:47:42.015Z,97897.16
2023-04-22T23:50:45.970Z,97893.69
2023-04-22T23:53:48.542Z,97893.63
2023-04-22T23:56:52.035Z,97899.06
2023-04-22T23:59:54.669Z,97894.47
